createdAt,value
2018-01-28T00:00:08.876Z,4.45
2018-01-28T00:02:36.484Z,4.47
2018-01-28T00:05:04.005Z,4.56
2018-01-28T00:07:31.522Z,4.65
2018-01-28T00:09:58.984Z,4.75
2018-01-28T00:12:26.474Z,4.78
2018-01-28T00:14:54.092Z,4.95
2018-01-28T00:17:21.554Z,4.89
2018-01-28T00:19:49.011Z,4.82
2018-01-28T00:22:16.555Z,4.81
2018-01-28T00:24:44.156Z,4.84
2018-01-28T00:27:11.629Z,4.93
2018-01-28T00:29:39.092Z,5.04
2018-01-28T00:32:06.551Z,5.13
2018-01-28T00:34:34.105Z,5.37
2018-01-28T00:37:01.606Z,5.41
2018-01-28T00:39:29.047Z,5.46
2018-01-28T00:41:57.636Z,5.44
2018-01-28T00:44:25.109Z,5.40
2018-01-28T00:46:52.586Z,5.55
2018-01-28T00:49:20.055Z,5.58
2018-01-28T00:51:47.576Z,5.60
2018-01-28T00:54:15.034Z,5.59
2018-01-28T00:56:42.561Z,5.55
2018-01-28T00:59:10.032Z,5.55
2018-01-28T01:01:37.485Z,5.57
2018-01-28T01:04:05.064Z,5.55
2018-01-28T01:06:32.516Z,5.43
2018-01-28T01:09:00.045Z,5.42
2018-01-28T01:11:27.583Z,5.38
2018-01-28T01:13:55.042Z,5.47
2018-01-28T01:16:22.612Z,5.46
2018-01-28T01:18:50.070Z,5.56
2018-01-28T01:21:17.543Z,5.66
2018-01-28T01:23:45.033Z,5.68
2018-01-28T01:26:12.603Z,5.70
2018-01-28T01:28:40.070Z,5.82
2018-01-28T01:31:07.550Z,5.99
2018-01-28T01:33:35.110Z,5.94
2018-01-28T01:36:02.560Z,5.96
2018-01-28T01:38:30.052Z,6.07
2018-01-28T01:40:57.509Z,6.09
2018-01-28T01:43:25.002Z,6.10
2018-01-28T01:45:52.453Z,6.07
2018-01-28T01:48:19.966Z,6.07
2018-01-28T01:50:47.507Z,6.04
2018-01-28T01:53:14.976Z,6.09
2018-01-28T01:55:42.415Z,6.06
2018-01-28T01:58:09.859Z,6.13
2018-01-28T02:00:37.379Z,6.25
2018-01-28T02:03:04.843Z,6.28
2018-01-28T02:05:32.304Z,6.25
2018-01-28T02:07:59.797Z,6.25
2018-01-28T02:10:27.385Z,6.33
2018-01-28T02:12:54.841Z,6.39
2018-01-28T02:15:22.313Z,6.41
2018-01-28T02:17:49.768Z,6.52
2018-01-28T02:20:17.572Z,6.62
2018-01-28T02:22:45.013Z,6.65
2018-01-28T02:25:12.480Z,6.60
2018-01-28T02:27:39.936Z,6.64
2018-01-28T02:30:07.380Z,6.72
2018-01-28T02:32:34.885Z,6.78
2018-01-28T02:35:02.327Z,6.82
2018-01-28T02:37:29.838Z,6.87
2018-01-28T02:39:57.259Z,6.94
2018-01-28T02:42:24.793Z,6.96
2018-01-28T02:44:52.252Z,7.00
2018-01-28T02:47:19.746Z,7.03
2018-01-28T02:49:47.192Z,7.07
2018-01-28T02:52:14.665Z,7.03
2018-01-28T02:54:42.229Z,7.06
2018-01-28T02:57:09.679Z,7.13
2018-01-28T02:59:37.145Z,7.15
2018-01-28T03:02:04.645Z,7.23
2018-01-28T03:04:32.103Z,7.35
2018-01-28T03:06:59.559Z,7.43
2018-01-28T03:09:27.044Z,7.44
2018-01-28T03:11:54.493Z,7.45
2018-01-28T03:14:21.949Z,7.49
2018-01-28T03:16:49.607Z,7.53
2018-01-28T03:19:17.054Z,7.62
2018-01-28T03:21:44.533Z,7.68
2018-01-28T03:24:11.977Z,7.66
2018-01-28T03:26:39.437Z,7.68
2018-01-28T03:29:06.896Z,7.81
2018-01-28T03:31:34.349Z,7.80
2018-01-28T03:34:01.880Z,7.81
2018-01-28T03:36:29.301Z,7.87
2018-01-28T03:38:56.764Z,7.97
2018-01-28T03:41:24.256Z,7.94
2018-01-28T03:43:51.717Z,7.93
2018-01-28T03:46:19.199Z,7.91
2018-01-28T03:48:46.687Z,7.92
2018-01-28T03:51:14.241Z,7.98
2018-01-28T03:53:41.680Z,7.93
2018-01-28T03:56:09.202Z,7.92
2018-01-28T03:58:36.669Z,7.87
2018-01-28T04:01:04.160Z,7.94
2018-01-28T04:03:31.606Z,7.97
2018-01-28T04:05:59.155Z,7.99
2018-01-28T04:08:26.618Z,7.98
2018-01-28T04:10:54.101Z,7.93
2018-01-28T04:13:21.676Z,7.84
2018-01-28T04:15:49.120Z,7.80
2018-01-28T04:18:16.600Z,7.85
2018-01-28T04:20:44.049Z,7.94
2018-01-28T04:23:11.556Z,7.93
2018-01-28T04:25:39.114Z,7.92
2018-01-28T04:28:06.689Z,7.90
2018-01-28T04:30:34.149Z,7.91
2018-01-28T04:33:01.616Z,7.93
2018-01-28T04:35:29.073Z,7.89
2018-01-28T04:37:56.565Z,7.86
2018-01-28T04:40:24.032Z,7.82
2018-01-28T04:42:51.487Z,7.76
2018-01-28T04:45:18.956Z,7.80
2018-01-28T04:47:46.396Z,7.77
2018-01-28T04:50:13.865Z,7.85
2018-01-28T04:52:41.308Z,7.90
2018-01-28T04:55:08.760Z,7.87
2018-01-28T04:57:36.208Z,7.86
2018-01-28T05:00:03.693Z,7.84
2018-01-28T05:02:31.158Z,7.84
2018-01-28T05:04:58.627Z,7.75
2018-01-28T05:07:26.089Z,7.73
2018-01-28T05:09:53.557Z,7.84
2018-01-28T05:12:21.016Z,7.86
2018-01-28T05:14:48.509Z,7.93
2018-01-28T05:17:15.987Z,8.02
2018-01-28T05:19:43.437Z,8.02
2018-01-28T05:22:10.915Z,7.96
2018-01-28T05:24:38.369Z,7.98
2018-01-28T05:27:05.867Z,8.00
2018-01-28T05:29:33.313Z,8.04
2018-01-28T05:32:00.800Z,8.06
2018-01-28T05:34:28.378Z,8.08
2018-01-28T05:39:22.650Z,8.03
2018-01-28T05:41:50.128Z,8.01
2018-01-28T05:44:17.596Z,8.06
2018-01-28T05:46:45.056Z,8.00
2018-01-28T05:49:12.545Z,7.91
2018-01-28T05:51:40.004Z,7.91
2018-01-28T05:54:07.473Z,7.91
2018-01-28T05:56:35.040Z,7.93
2018-01-28T05:59:02.566Z,7.91
2018-01-28T06:01:30.040Z,7.89
2018-01-28T06:03:57.513Z,7.85
2018-01-28T06:06:25.068Z,7.76
2018-01-28T06:08:52.527Z,7.78
2018-01-28T06:11:19.992Z,7.77
2018-01-28T06:13:47.440Z,7.74
2018-01-28T06:16:14.908Z,7.73
2018-01-28T06:18:42.361Z,7.70
2018-01-28T06:21:09.845Z,7.71
2018-01-28T06:23:37.297Z,7.66
2018-01-28T06:26:04.765Z,7.62
2018-01-28T06:28:32.248Z,7.61
2018-01-28T06:30:59.697Z,7.65
2018-01-28T06:33:27.233Z,7.60
2018-01-28T06:35:54.701Z,7.68
2018-01-28T06:38:22.169Z,7.70
2018-01-28T06:40:49.684Z,7.63
2018-01-28T06:43:17.232Z,7.64
2018-01-28T06:45:44.673Z,7.67
2018-01-28T06:48:12.143Z,7.68
2018-01-28T06:50:39.630Z,7.66
2018-01-28T06:53:07.213Z,7.68
2018-01-28T06:55:34.665Z,7.70
2018-01-28T06:58:02.132Z,7.69
2018-01-28T07:00:29.618Z,7.71
2018-01-28T07:02:57.085Z,7.70
2018-01-28T07:05:24.659Z,7.69
2018-01-28T07:07:52.113Z,7.77
2018-01-28T07:10:19.610Z,7.71
2018-01-28T07:12:47.164Z,7.71
2018-01-28T07:15:14.671Z,7.78
2018-01-28T07:17:42.129Z,7.70
2018-01-28T07:20:09.677Z,7.64
2018-01-28T07:22:37.206Z,7.66
2018-01-28T07:25:04.644Z,7.64
2018-01-28T07:27:32.109Z,7.61
2018-01-28T07:29:59.561Z,7.62
2018-01-28T07:32:27.019Z,7.62
2018-01-28T07:34:54.476Z,7.59
2018-01-28T07:37:21.932Z,7.58
2018-01-28T07:39:49.425Z,7.61
2018-01-28T07:42:17.187Z,7.59
2018-01-28T07:44:44.636Z,7.58
2018-01-28T07:47:12.153Z,7.50
2018-01-28T07:49:39.610Z,7.47
2018-01-28T07:52:07.092Z,7.45
2018-01-28T07:54:34.578Z,7.45
2018-01-28T07:57:02.036Z,7.45
2018-01-28T07:59:29.527Z,7.42
2018-01-28T08:01:56.986Z,7.41
2018-01-28T08:04:24.460Z,7.48
2018-01-28T08:06:51.930Z,7.53
2018-01-28T08:09:19.381Z,7.46
2018-01-28T08:14:54.431Z,7.61
2018-01-28T08:17:21.885Z,7.64
2018-01-28T08:19:49.332Z,7.68
2018-01-28T08:22:16.806Z,7.79
2018-01-28T08:24:44.259Z,7.74
2018-01-28T08:27:14.518Z,7.76
2018-01-28T08:29:41.976Z,7.77
2018-01-28T08:32:09.492Z,7.76
2018-01-28T08:34:36.953Z,7.84
2018-01-28T08:37:04.445Z,7.84
2018-01-28T08:39:31.918Z,7.96
2018-01-28T08:41:59.388Z,8.05
2018-01-28T08:44:26.860Z,8.04
2018-01-28T08:46:54.328Z,8.06
2018-01-28T08:49:21.809Z,8.05
2018-01-28T08:51:49.257Z,8.12
2018-01-28T08:54:16.736Z,8.11
2018-01-28T08:56:44.309Z,8.18
2018-01-28T08:59:11.881Z,8.09
2018-01-28T09:01:39.369Z,8.09
2018-01-28T09:04:06.885Z,8.23
2018-01-28T09:06:34.343Z,8.24
2018-01-28T09:09:01.801Z,8.23
2018-01-28T09:11:29.383Z,8.34
2018-01-28T09:13:56.835Z,8.39
2018-01-28T09:16:24.295Z,8.43
2018-01-28T09:18:51.749Z,8.39
2018-01-28T09:21:19.208Z,8.45
2018-01-28T09:23:46.667Z,8.55
2018-01-28T09:26:14.162Z,8.59
2018-01-28T09:28:41.621Z,8.60
2018-01-28T09:31:09.166Z,8.69
2018-01-28T09:33:36.618Z,8.64
2018-01-28T09:36:04.138Z,8.70
2018-01-28T09:38:31.596Z,8.67
2018-01-28T09:40:59.088Z,8.77
2018-01-28T09:43:26.599Z,8.80
2018-01-28T09:45:54.060Z,8.82
2018-01-28T09:48:21.645Z,8.89
2018-01-28T09:50:49.164Z,8.94
2018-01-28T09:53:16.672Z,8.94
2018-01-28T09:55:44.142Z,9.02
2018-01-28T09:58:11.602Z,9.03
2018-01-28T10:00:39.157Z,8.96
2018-01-28T10:03:06.650Z,9.06
2018-01-28T10:05:34.121Z,9.18
2018-01-28T10:08:01.690Z,9.16
2018-01-28T10:10:29.271Z,9.16
2018-01-28T10:12:56.821Z,9.25
2018-01-28T10:15:24.290Z,9.14
2018-01-28T10:17:51.762Z,9.10
2018-01-28T10:20:19.247Z,9.21
2018-01-28T10:22:46.803Z,9.30
2018-01-28T10:25:14.362Z,9.35
2018-01-28T10:27:41.853Z,9.45
2018-01-28T10:30:09.423Z,9.58
2018-01-28T10:32:36.977Z,9.51
2018-01-28T10:35:04.440Z,9.71
2018-01-28T10:37:31.908Z,9.85
2018-01-28T10:39:59.399Z,10.01
2018-01-28T10:42:27.001Z,10.13
2018-01-28T10:44:54.449Z,9.98
2018-01-28T10:47:22.120Z,9.90
2018-01-28T10:49:49.593Z,9.71
2018-01-28T10:52:17.165Z,9.77
2018-01-28T10:54:44.658Z,9.79
2018-01-28T10:57:12.127Z,9.65
2018-01-28T10:59:39.615Z,9.47
2018-01-28T11:02:07.100Z,9.51
2018-01-28T11:04:34.581Z,9.41
2018-01-28T11:07:02.036Z,9.38
2018-01-28T11:09:29.501Z,9.35
2018-01-28T11:11:56.998Z,9.46
2018-01-28T11:14:24.498Z,9.38
2018-01-28T11:16:52.018Z,9.42
2018-01-28T11:19:19.504Z,9.44
2018-01-28T11:21:46.998Z,9.43
2018-01-28T11:24:14.486Z,9.49
2018-01-28T11:26:42.040Z,9.66
2018-01-28T11:29:09.535Z,9.69
2018-01-28T11:31:37.011Z,9.80
2018-01-28T11:34:04.533Z,9.99
2018-01-28T11:36:31.984Z,10.25
2018-01-28T11:38:59.557Z,10.43
2018-01-28T11:41:27.081Z,10.74
2018-01-28T11:43:54.697Z,10.79
2018-01-28T11:46:22.259Z,10.97
2018-01-28T11:48:49.706Z,11.05
2018-01-28T11:51:17.265Z,11.47
2018-01-28T11:53:44.748Z,11.50
2018-01-28T11:56:12.318Z,11.21
2018-01-28T11:58:39.806Z,11.31
2018-01-28T12:01:07.511Z,11.17
2018-01-28T12:03:35.086Z,11.25
2018-01-28T12:06:02.532Z,11.12
2018-01-28T12:08:30.056Z,10.87
2018-01-28T12:10:57.521Z,10.70
2018-01-28T12:13:25.001Z,10.72
2018-01-28T12:15:52.489Z,10.64
2018-01-28T12:18:19.996Z,10.46
2018-01-28T12:20:47.513Z,10.30
2018-01-28T12:23:14.978Z,10.24
2018-01-28T12:25:42.432Z,10.19
2018-01-28T12:28:09.941Z,10.23
2018-01-28T12:30:37.421Z,10.53
2018-01-28T12:33:04.909Z,10.63
2018-01-28T12:35:32.469Z,10.74
2018-01-28T12:37:59.923Z,10.50
2018-01-28T12:40:27.390Z,10.31
2018-01-28T12:42:54.869Z,10.28
2018-01-28T12:45:22.411Z,10.33
2018-01-28T12:47:49.920Z,10.22
2018-01-28T12:50:17.385Z,10.35
2018-01-28T12:52:44.887Z,10.25
2018-01-28T12:55:12.482Z,10.13
2018-01-28T12:57:39.947Z,10.07
2018-01-28T13:00:07.506Z,10.00
2018-01-28T13:02:35.043Z,10.01
2018-01-28T13:05:02.501Z,10.06
2018-01-28T13:07:29.969Z,10.02
2018-01-28T13:09:57.433Z,10.00
2018-01-28T13:12:24.937Z,9.89
2018-01-28T13:14:52.439Z,9.82
2018-01-28T13:17:19.955Z,9.79
2018-01-28T13:19:47.421Z,9.79
2018-01-28T13:22:14.934Z,9.75
2018-01-28T13:24:42.478Z,9.78
2018-01-28T13:27:09.977Z,9.80
2018-01-28T13:29:37.506Z,9.83
2018-01-28T13:32:04.948Z,9.73
2018-01-28T13:34:32.480Z,9.69
2018-01-28T13:36:59.953Z,9.67
2018-01-28T13:39:27.489Z,9.64
2018-01-28T13:41:54.951Z,9.68
2018-01-28T13:44:22.418Z,9.74
2018-01-28T13:46:49.886Z,9.68
2018-01-28T13:49:17.424Z,9.65
2018-01-28T13:51:44.887Z,9.66
2018-01-28T13:54:12.692Z,9.55
2018-01-28T13:56:40.291Z,9.65
2018-01-28T13:59:07.782Z,9.61
2018-01-28T14:01:35.287Z,9.65
2018-01-28T14:04:02.791Z,9.71
2018-01-28T14:06:30.259Z,9.66
2018-01-28T14:08:57.808Z,9.60
2018-01-28T14:11:25.231Z,9.66
2018-01-28T14:13:52.768Z,9.60
2018-01-28T14:16:20.219Z,9.56
2018-01-28T14:18:47.748Z,9.56
2018-01-28T14:21:15.251Z,9.56
2018-01-28T14:23:42.732Z,9.53
2018-01-28T14:26:10.270Z,9.58
2018-01-28T14:28:37.764Z,9.56
2018-01-28T14:31:05.262Z,9.52
2018-01-28T14:33:32.801Z,9.54
2018-01-28T14:36:00.311Z,9.58
2018-01-28T14:38:27.763Z,9.55
2018-01-28T14:40:55.278Z,9.57
2018-01-28T14:43:22.738Z,9.57
2018-01-28T14:45:50.253Z,9.55
2018-01-28T14:48:17.719Z,9.57
2018-01-28T14:50:45.198Z,9.55
2018-01-28T14:53:12.653Z,9.55
2018-01-28T14:55:40.161Z,9.53
2018-01-28T14:58:07.622Z,9.50
2018-01-28T15:00:35.205Z,9.50
2018-01-28T15:03:02.728Z,9.50
2018-01-28T15:05:30.186Z,9.49
2018-01-28T15:07:57.650Z,9.46
2018-01-28T15:10:25.125Z,9.41
2018-01-28T15:12:52.646Z,9.52
2018-01-28T15:15:20.133Z,9.50
2018-01-28T15:17:47.629Z,9.46
2018-01-28T15:20:15.088Z,9.40
2018-01-28T15:22:42.814Z,9.37
2018-01-28T15:25:10.288Z,9.38
2018-01-28T15:27:37.754Z,9.36
2018-01-28T15:30:05.319Z,9.39
2018-01-28T15:32:32.805Z,9.48
2018-01-28T15:35:00.315Z,9.44
2018-01-28T15:37:27.857Z,9.41
2018-01-28T15:39:55.337Z,9.37
2018-01-28T15:42:22.836Z,9.38
2018-01-28T15:44:50.372Z,9.31
2018-01-28T15:47:17.880Z,9.34
2018-01-28T15:49:45.420Z,9.37
2018-01-28T15:52:12.890Z,9.31
2018-01-28T15:54:40.447Z,9.35
2018-01-28T15:57:08.008Z,9.33
2018-01-28T15:59:35.504Z,9.28
2018-01-28T16:02:02.986Z,9.28
2018-01-28T16:04:30.490Z,9.23
2018-01-28T16:06:58.025Z,9.18
2018-01-28T16:09:25.538Z,9.21
2018-01-28T16:11:53.098Z,9.20
2018-01-28T16:14:20.588Z,9.19
2018-01-28T16:16:48.181Z,9.22
2018-01-28T16:19:15.640Z,9.22
2018-01-28T16:21:43.176Z,9.24
2018-01-28T16:24:10.704Z,9.17
2018-01-28T16:26:38.235Z,9.18
2018-01-28T16:29:05.698Z,9.14
2018-01-28T16:31:33.185Z,9.14
2018-01-28T16:34:00.696Z,9.09
2018-01-28T16:36:28.191Z,9.09
2018-01-28T16:38:55.723Z,9.07
2018-01-28T16:41:23.350Z,9.01
2018-01-28T16:43:50.864Z,8.99
2018-01-28T16:46:18.334Z,8.96
2018-01-28T16:48:45.852Z,9.01
2018-01-28T16:51:13.324Z,9.01
2018-01-28T16:53:40.867Z,8.97
2018-01-28T16:56:08.367Z,8.89
2018-01-28T16:58:35.881Z,8.86
2018-01-28T17:01:03.390Z,8.89
2018-01-28T17:03:30.919Z,8.84
2018-01-28T17:05:58.427Z,8.80
2018-01-28T17:08:25.883Z,8.81
2018-01-28T17:10:53.489Z,8.80
2018-01-28T17:13:21.067Z,8.78
2018-01-28T17:15:48.653Z,8.82
2018-01-28T17:18:16.138Z,8.80
2018-01-28T17:20:43.654Z,8.80
2018-01-28T17:23:11.108Z,8.78
2018-01-28T17:25:38.644Z,8.80
2018-01-28T17:28:06.252Z,8.75
2018-01-28T17:30:33.747Z,8.75
2018-01-28T17:33:01.292Z,8.75
2018-01-28T17:35:34.448Z,8.78
2018-01-28T17:38:01.985Z,8.77
2018-01-28T17:40:29.498Z,8.75
2018-01-28T17:42:57.011Z,8.75
2018-01-28T17:45:24.521Z,8.77
2018-01-28T17:47:52.075Z,8.80
2018-01-28T17:50:19.526Z,8.77
2018-01-28T17:52:47.019Z,8.74
2018-01-28T17:55:14.619Z,8.74
2018-01-28T17:57:42.073Z,8.75
2018-01-28T18:00:09.599Z,8.77
2018-01-28T18:02:37.151Z,8.80
2018-01-28T18:05:04.666Z,8.80
2018-01-28T18:07:32.179Z,8.82
2018-01-28T18:09:59.697Z,8.86
2018-01-28T18:12:27.152Z,8.83
2018-01-28T18:14:54.653Z,8.80
2018-01-28T18:17:22.150Z,8.86
2018-01-28T18:19:49.654Z,8.85
2018-01-28T18:22:17.216Z,8.89
2018-01-28T18:24:44.758Z,8.86
2018-01-28T18:27:12.236Z,8.96
2018-01-28T18:29:39.687Z,8.95
2018-01-28T18:32:07.622Z,9.01
2018-01-28T18:34:35.155Z,9.15
2018-01-28T18:37:02.689Z,9.11
2018-01-28T18:39:30.196Z,9.06
2018-01-28T18:41:57.704Z,8.99
2018-01-28T18:44:25.195Z,8.95
2018-01-28T18:46:52.882Z,8.95
2018-01-28T18:49:20.436Z,8.96
2018-01-28T18:51:47.928Z,9.00
2018-01-28T18:54:15.456Z,8.96
2018-01-28T18:56:42.910Z,8.94
2018-01-28T18:59:10.432Z,9.02
2018-01-28T19:01:37.980Z,9.00
2018-01-28T19:04:05.577Z,8.97
2018-01-28T19:06:33.085Z,9.01
2018-01-28T19:09:00.603Z,9.04
2018-01-28T19:11:28.204Z,9.06
2018-01-28T19:13:55.738Z,9.04
2018-01-28T19:16:23.309Z,9.03
2018-01-28T19:18:50.878Z,9.03
2018-01-28T19:21:18.324Z,9.06
2018-01-28T19:23:45.820Z,9.11
2018-01-28T19:26:13.341Z,9.09
2018-01-28T19:28:40.858Z,9.14
2018-01-28T19:31:08.438Z,9.15
2018-01-28T19:33:36.042Z,9.21
2018-01-28T19:36:03.731Z,9.16
2018-01-28T19:38:31.233Z,9.16
2018-01-28T19:40:58.838Z,9.16
2018-01-28T19:43:26.340Z,9.19
2018-01-28T19:45:53.820Z,9.20
2018-01-28T19:48:21.349Z,9.19
2018-01-28T19:50:48.907Z,9.27
2018-01-28T19:53:16.377Z,9.27
2018-01-28T19:55:43.973Z,9.26
2018-01-28T19:58:11.500Z,9.31
2018-01-28T20:00:38.998Z,9.31
2018-01-28T20:03:06.884Z,9.33
2018-01-28T20:05:34.462Z,9.38
2018-01-28T20:08:02.028Z,9.38
2018-01-28T20:10:29.868Z,9.46
2018-01-28T20:12:57.377Z,9.40
2018-01-28T20:15:24.927Z,9.44
2018-01-28T20:17:52.538Z,9.47
2018-01-28T20:20:19.983Z,9.47
2018-01-28T20:22:47.482Z,9.47
2018-01-28T20:25:15.022Z,9.50
2018-01-28T20:27:42.538Z,9.53
2018-01-28T20:30:10.053Z,9.55
2018-01-28T20:32:37.884Z,9.58
2018-01-28T20:35:05.401Z,9.53
2018-01-28T20:37:32.918Z,9.59
2018-01-28T20:40:01.341Z,9.56
2018-01-28T20:42:28.873Z,9.57
2018-01-28T20:44:56.372Z,9.54
2018-01-28T20:47:23.928Z,9.53
2018-01-28T20:49:51.418Z,9.51
2018-01-28T20:52:18.965Z,9.55
2018-01-28T20:54:46.642Z,9.61
2018-01-28T20:57:14.106Z,9.61
2018-01-28T20:59:42.003Z,9.61
2018-01-28T21:02:09.548Z,9.63
2018-01-28T21:04:37.066Z,9.62
2018-01-28T21:07:04.537Z,9.64
2018-01-28T21:09:32.021Z,9.70
2018-01-28T21:11:59.649Z,9.70
2018-01-28T21:14:27.406Z,9.67
2018-01-28T21:16:55.019Z,9.72
2018-01-28T21:19:22.603Z,9.73
2018-01-28T21:21:50.157Z,9.72
2018-01-28T21:24:17.671Z,9.67
2018-01-28T21:26:45.180Z,9.69
2018-01-28T21:29:12.740Z,9.70
2018-01-28T21:31:40.184Z,9.71
2018-01-28T21:34:07.688Z,9.72
2018-01-28T21:36:35.297Z,9.69
2018-01-28T21:39:03.062Z,9.71
2018-01-28T21:41:30.633Z,9.71
2018-01-28T21:43:58.162Z,9.71
2018-01-28T21:46:25.667Z,9.66
2018-01-28T21:48:53.477Z,9.67
2018-01-28T21:51:20.926Z,9.62
2018-01-28T21:53:48.420Z,9.68
2018-01-28T21:56:15.972Z,9.66
2018-01-28T21:58:43.419Z,9.73
2018-01-28T22:01:10.941Z,9.77
2018-01-28T22:03:38.449Z,9.72
2018-01-28T22:06:05.968Z,9.72
2018-01-28T22:08:33.455Z,9.75
2018-01-28T22:11:01.002Z,9.76
2018-01-28T22:13:28.508Z,9.81
2018-01-28T22:15:56.023Z,9.84
2018-01-28T22:18:23.579Z,9.89
2018-01-28T22:20:51.194Z,9.85
2018-01-28T22:23:19.072Z,9.88
2018-01-28T22:25:46.629Z,9.88
2018-01-28T22:28:14.098Z,9.91
2018-01-28T22:30:42.452Z,9.94
2018-01-28T22:33:10.069Z,9.93
2018-01-28T22:35:37.767Z,9.94
2018-01-28T22:38:05.244Z,9.94
2018-01-28T22:40:32.750Z,9.92
2018-01-28T22:43:00.208Z,9.92
2018-01-28T22:45:27.656Z,9.93
2018-01-28T22:47:55.191Z,9.88
2018-01-28T22:50:22.758Z,9.88
2018-01-28T22:52:50.227Z,9.92
2018-01-28T22:55:17.773Z,9.85
2018-01-28T22:57:45.399Z,9.92
2018-01-28T23:00:12.914Z,9.91
2018-01-28T23:02:40.388Z,9.90
2018-01-28T23:05:08.013Z,9.91
2018-01-28T23:07:35.506Z,9.89
2018-01-28T23:10:03.009Z,9.88
2018-01-28T23:12:30.494Z,9.82
2018-01-28T23:14:58.057Z,9.82
2018-01-28T23:17:25.556Z,9.87
2018-01-28T23:19:53.145Z,9.93
2018-01-28T23:22:20.592Z,9.91
2018-01-28T23:24:48.147Z,9.87
2018-01-28T23:27:15.591Z,9.89
2018-01-28T23:29:43.228Z,9.88
2018-01-28T23:32:10.694Z,9.88
2018-01-28T23:34:38.187Z,9.91
2018-01-28T23:37:05.654Z,9.88
2018-01-28T23:39:33.100Z,9.92
2018-01-28T23:42:00.564Z,9.92
2018-01-28T23:44:28.010Z,9.90
2018-01-28T23:46:55.532Z,9.94
2018-01-28T23:49:22.989Z,9.95
2018-01-28T23:51:50.459Z,9.88
2018-01-28T23:54:17.913Z,9.91
2018-01-28T23:56:45.383Z,9.89
2018-01-28T23:59:12.828Z,9.92
